Red Cosmos — V7NU8 — position and weather

sailwx.info

Track history (hours):
 
Tides and Currents Weather Stations Pressure Air Temp Water Temp Dewpoint Dewpoint Depression Visibility Wind Speed Wind Dir Waves Ship Positions

Red Cosmos

Last reported at 2018-May-15 13:20 UTC. Time now 2018-May-24 02:30 UTC.
Position N 07°02' W 013°36'.
Warning: this ship's position is 8 days out of date.

Length 199 m; draft 13.6 m.

Type: Cargo ship. MMSI: 538006508.

Date/timePositionNaut miles runAvg speedWind from/ knotsBaromVisibWave heightAir tempDewpointWater temp
2018-May-15 13:20N 07°02' W 013°36'513.6
2018-May-15 13:01N 07°04' W 013°40'913.6
2018-May-15 12:21N 07°09' W 013°48'1013.5
2018-May-15 11:37N 07°15' W 013°56'313.4
2018-May-15 11:25N 07°17' W 013°58'5813.2
2018-May-15 07:01N 07°55' W 014°42'013.0
2018-May-15 07:00N 07°55' W 014°42'612.9
2018-May-15 06:30N 07°60' W 014°47'813.3
2018-May-15 05:52N 08°06' W 014°53'513.4
2018-May-15 05:30N 08°09' W 014°56'713.6
2018-May-15 05:00N 08°14' W 015°01'713.5
2018-May-15 04:30N 08°19' W 015°05'713.4
2018-May-15 04:00N 08°24' W 015°10'813.3
2018-May-15 03:22N 08°30' W 015°16'613.4
2018-May-15 02:53N 08°35' W 015°21'613.5
2018-May-15 02:28N 08°39' W 015°24'613.4
2018-May-15 02:00N 08°44' W 015°29'1313.2
2018-May-15 00:59N 08°53' W 015°38'613.1
2018-May-15 00:31N 08°58' W 015°42'713.1
2018-May-15 00:00N 09°03' W 015°47'2312.9
2018-May-14 22:14N 09°19' W 016°03'813.0
2018-May-14 21:40N 09°25' W 016°08'213.1
2018-May-14 21:28N 09°27' W 016°10'612.9
2018-May-14 21:00N 09°31' W 016°14'712.9
2018-May-14 20:30N 09°36' W 016°18'613.2
2018-May-14 20:00N 09°40' W 016°23'713.3
2018-May-14 19:30N 09°45' W 016°28'613.0
2018-May-14 19:00N 09°50' W 016°32'612.7
2018-May-14 18:31N 09°56' W 016°35'712.7
2018-May-14 17:59N 10°02' W 016°38'612.9
2018-May-14 17:29N 10°08' W 016°40'713.1
2018-May-14 16:55N 10°14' W 016°43'613.2
2018-May-14 16:30N 10°19' W 016°46'713.4
2018-May-14 16:00N 10°25' W 016°49'913.5
2018-May-14 15:21N 10°33' W 016°52'513.6
2018-May-14 15:00N 10°38' W 016°54'713.8
2018-May-14 14:30N 10°44' W 016°57'1713.7
2018-May-14 13:18N 10°59' W 017°04'413.4
2018-May-14 12:58N 11°03' W 017°06'  
2018-May-08 21:23N 35°57' W 005°35'4 9.9
2018-May-08 21:01N 35°58' W 005°31'5 9.2
2018-May-08 20:31N 35°59' W 005°25'3 6.7
2018-May-08 20:01N 35°58' W 005°22'3 6.4
2018-May-08 19:30N 35°55' W 005°20'0 0.7
2018-May-08 19:00N 35°55' W 005°20'0 0.1
2018-May-08 18:30N 35°55' W 005°20'0 0.0
2018-May-08 18:00N 35°55' W 005°20'0 0.0
2018-May-08 17:30N 35°55' W 005°20'0 0.0
2018-May-08 17:00N 35°55' W 005°20'0 0.0
2018-May-08 16:30N 35°55' W 005°20'0 0.0
2018-May-08 16:00N 35°55' W 005°20'0 0.0
2018-May-08 15:30N 35°55' W 005°20'0 0.0
2018-May-08 15:00N 35°55' W 005°20'0 0.0
2018-May-08 14:30N 35°55' W 005°20'0 0.0
2018-May-08 14:00N 35°55' W 005°20'0 0.0
2018-May-08 13:30N 35°55' W 005°20'0 0.0
2018-May-08 13:00N 35°55' W 005°20'0 0.1
2018-May-08 12:30N 35°55' W 005°20'0 0.0
2018-May-08 12:00N 35°55' W 005°20'0 0.0
2018-May-08 11:30N 35°55' W 005°20'0 0.0
2018-May-08 11:00N 35°55' W 005°20'0 0.0
2018-May-08 10:30N 35°55' W 005°20'0 0.0
2018-May-08 10:00N 35°55' W 005°20'0 0.0
2018-May-08 09:30N 35°55' W 005°20'0 0.0
2018-May-08 09:00N 35°55' W 005°20'0 0.1
2018-May-08 08:30N 35°55' W 005°20'0 0.4
2018-May-08 08:00N 35°55' W 005°20'0 0.3
2018-May-08 07:30N 35°55' W 005°20'0 0.1
2018-May-08 07:00N 35°55' W 005°20'0 0.0
2018-May-08 06:30N 35°55' W 005°20'0 0.0
2018-May-08 06:00N 35°55' W 005°20'0 0.0
2018-May-08 05:30N 35°55' W 005°20'0 0.4
2018-May-08 05:00N 35°55' W 005°20'2 4.0
2018-May-08 04:31N 35°55' W 005°18'4 7.4
2018-May-08 04:00N 35°56' W 005°13'  
Track history (hours):
 
Tides and Currents Weather Stations Pressure Air Temp Water Temp Dewpoint Dewpoint Depression Visibility Wind Speed Wind Dir Waves Ship Positions

Red Cosmos

Last reported at 2018-May-15 13:20 UTC. Time now 2018-May-24 02:30 UTC.
Position N 07°02' W 013°36'.
Warning: this ship's position is 8 days out of date.

Length 199 m; draft 13.6 m.

Type: Cargo ship. MMSI: 538006508.

Date/timePositionNaut miles runAvg speedWind from/ knotsBaromVisibWave heightAir tempDewpointWater temp
2018-May-15 13:20N 07°02' W 013°36'513.6
2018-May-15 13:01N 07°04' W 013°40'913.6
2018-May-15 12:21N 07°09' W 013°48'1013.5
2018-May-15 11:37N 07°15' W 013°56'313.4
2018-May-15 11:25N 07°17' W 013°58'5813.2
2018-May-15 07:01N 07°55' W 014°42'013.0
2018-May-15 07:00N 07°55' W 014°42'612.9
2018-May-15 06:30N 07°60' W 014°47'813.3
2018-May-15 05:52N 08°06' W 014°53'513.4
2018-May-15 05:30N 08°09' W 014°56'713.6
2018-May-15 05:00N 08°14' W 015°01'713.5
2018-May-15 04:30N 08°19' W 015°05'713.4
2018-May-15 04:00N 08°24' W 015°10'813.3
2018-May-15 03:22N 08°30' W 015°16'613.4
2018-May-15 02:53N 08°35' W 015°21'613.5
2018-May-15 02:28N 08°39' W 015°24'613.4
2018-May-15 02:00N 08°44' W 015°29'1313.2
2018-May-15 00:59N 08°53' W 015°38'613.1
2018-May-15 00:31N 08°58' W 015°42'713.1
2018-May-15 00:00N 09°03' W 015°47'2312.9
2018-May-14 22:14N 09°19' W 016°03'813.0
2018-May-14 21:40N 09°25' W 016°08'213.1
2018-May-14 21:28N 09°27' W 016°10'612.9
2018-May-14 21:00N 09°31' W 016°14'712.9
2018-May-14 20:30N 09°36' W 016°18'613.2
2018-May-14 20:00N 09°40' W 016°23'713.3
2018-May-14 19:30N 09°45' W 016°28'613.0
2018-May-14 19:00N 09°50' W 016°32'612.7
2018-May-14 18:31N 09°56' W 016°35'712.7
2018-May-14 17:59N 10°02' W 016°38'612.9
2018-May-14 17:29N 10°08' W 016°40'713.1
2018-May-14 16:55N 10°14' W 016°43'613.2
2018-May-14 16:30N 10°19' W 016°46'713.4
2018-May-14 16:00N 10°25' W 016°49'913.5
2018-May-14 15:21N 10°33' W 016°52'513.6
2018-May-14 15:00N 10°38' W 016°54'713.8
2018-May-14 14:30N 10°44' W 016°57'1713.7
2018-May-14 13:18N 10°59' W 017°04'413.4
2018-May-14 12:58N 11°03' W 017°06'  
2018-May-08 21:23N 35°57' W 005°35'4 9.9
2018-May-08 21:01N 35°58' W 005°31'5 9.2
2018-May-08 20:31N 35°59' W 005°25'3 6.7
2018-May-08 20:01N 35°58' W 005°22'3 6.4
2018-May-08 19:30N 35°55' W 005°20'0 0.7
2018-May-08 19:00N 35°55' W 005°20'0 0.1
2018-May-08 18:30N 35°55' W 005°20'0 0.0
2018-May-08 18:00N 35°55' W 005°20'0 0.0
2018-May-08 17:30N 35°55' W 005°20'0 0.0
2018-May-08 17:00N 35°55' W 005°20'0 0.0
2018-May-08 16:30N 35°55' W 005°20'0 0.0
2018-May-08 16:00N 35°55' W 005°20'0 0.0
2018-May-08 15:30N 35°55' W 005°20'0 0.0
2018-May-08 15:00N 35°55' W 005°20'0 0.0
2018-May-08 14:30N 35°55' W 005°20'0 0.0
2018-May-08 14:00N 35°55' W 005°20'0 0.0
2018-May-08 13:30N 35°55' W 005°20'0 0.0
2018-May-08 13:00N 35°55' W 005°20'0 0.1
2018-May-08 12:30N 35°55' W 005°20'0 0.0
2018-May-08 12:00N 35°55' W 005°20'0 0.0
2018-May-08 11:30N 35°55' W 005°20'0 0.0
2018-May-08 11:00N 35°55' W 005°20'0 0.0
2018-May-08 10:30N 35°55' W 005°20'0 0.0
2018-May-08 10:00N 35°55' W 005°20'0 0.0
2018-May-08 09:30N 35°55' W 005°20'0 0.0
2018-May-08 09:00N 35°55' W 005°20'0 0.1
2018-May-08 08:30N 35°55' W 005°20'0 0.4
2018-May-08 08:00N 35°55' W 005°20'0 0.3
2018-May-08 07:30N 35°55' W 005°20'0 0.1
2018-May-08 07:00N 35°55' W 005°20'0 0.0
2018-May-08 06:30N 35°55' W 005°20'0 0.0
2018-May-08 06:00N 35°55' W 005°20'0 0.0
2018-May-08 05:30N 35°55' W 005°20'0 0.4
2018-May-08 05:00N 35°55' W 005°20'2 4.0
2018-May-08 04:31N 35°55' W 005°18'4 7.4
2018-May-08 04:00N 35°56' W 005°13'  

Dump ship's entire track history